Time;durP1;ratioP1;P1;durP2;ratioP2;P2;SDS_P1;SDS_P2;PMS_P1;PMS_P2;Temp;Humidity;BMP_temperature;BMP_pressure;BME280_temperature;BME280_humidity;BME280_pressure;Samples;Min_cycle;Max_cycle;Signal;HPM_P1;HPM_P2
2022/05/12 00:00:37;;;;;;;13.20;3.57;;;;;;;20.12;nan;101296.34;4784104;30;20441;-85
2022/05/12 00:03:35;;;;;;;11.43;3.20;;;;;;;20.01;nan;101278.63;4750982;30;20472;-84
2022/05/12 00:06:18;;;;;;;9.20;3.40;;;;;;;20.12;nan;101290.78;4782644;29;20459;-84
2022/05/12 00:09:49;;;;;;;10.80;3.03;;;;;;;20.12;nan;101296.34;4791383;29;20494;-84
2022/05/12 00:13:11;;;;;;;11.43;3.67;;;;;;;20.09;nan;101286.56;4775627;30;20538;-83
2022/05/12 00:15:53;;;;;;;21.77;3.93;;;;;;;19.94;nan;101262.09;4759043;30;20516;-84
2022/05/12 00:21:57;;;;;;;16.37;4.20;;;;;;;20.01;nan;101270.31;4708343;30;20450;-83
2022/05/12 00:24:38;;;;;;;12.67;3.77;;;;;;;20.05;nan;101273.41;4694103;30;20462;-83
2022/05/12 00:27:15;;;;;;;12.10;4.03;;;;;;;19.94;nan;101259.31;4729234;30;20457;-83
2022/05/12 00:30:20;;;;;;;10.60;3.80;;;;;;;20.01;nan;101271.13;4749936;30;20999;-83
2022/05/12 00:34:11;;;;;;;12.50;4.00;;;;;;;20.00;nan;101266.69;4738869;30;20454;-84
2022/05/12 00:43:46;;;;;;;6.70;3.10;;;;;;;19.93;nan;101254.00;4698423;30;20444;-83
2022/05/12 00:49:37;;;;;;;17.23;4.40;;;;;;;19.82;nan;101233.50;4624824;30;20500;-83
2022/05/12 00:53:15;;;;;;;8.80;3.43;;;;;;;19.89;nan;101242.56;4615198;30;20529;-83
2022/05/12 00:55:56;;;;;;;9.40;3.73;;;;;;;19.79;nan;101227.63;4613809;31;20511;-83
2022/05/12 00:59:12;;;;;;;17.33;4.27;;;;;;;19.71;nan;101212.19;4633186;30;20625;-85
2022/05/12 01:05:58;;;;;;;14.93;3.80;;;;;;;19.57;nan;101205.22;4679091;30;20578;-83
2022/05/12 01:11:37;;;;;;;10.93;3.90;;;;;;;19.60;nan;101213.88;4758135;30;20967;-83
2022/05/12 01:14:29;;;;;;;24.63;4.17;;;;;;;19.53;nan;101204.84;4723122;30;20550;-83
2022/05/12 01:17:11;;;;;;;29.33;3.80;;;;;;;19.52;nan;101197.59;4737348;30;20456;-83
2022/05/12 01:23:36;;;;;;;10.73;3.97;;;;;;;19.48;nan;101192.75;4743565;29;20442;-84
2022/05/12 01:26:28;;;;;;;14.77;3.73;;;;;;;19.52;nan;101205.09;4749493;30;20465;-83
2022/05/12 01:28:55;;;;;;;12.10;4.03;;;;;;;19.60;nan;101221.38;4721787;30;20550;-84
2022/05/12 01:31:42;;;;;;;24.00;3.63;;;;;;;19.58;nan;101212.44;4751112;30;20457;-83
2022/05/12 01:34:35;;;;;;;10.47;4.23;;;;;;;19.47;nan;101185.50;4790001;29;20446;-83
2022/05/12 01:37:09;;;;;;;12.83;4.13;;;;;;;19.51;nan;101211.72;4789767;29;20451;-83
2022/05/12 01:39:53;;;;;;;12.20;4.00;;;;;;;19.40;nan;101191.19;4816815;29;20461;-84
2022/05/12 01:46:43;;;;;;;12.10;4.03;;;;;;;19.32;nan;101217.34;4810538;29;20465;-83
2022/05/12 01:49:47;;;;;;;14.43;3.47;;;;;;;19.38;nan;101228.56;4712003;30;20501;-83
2022/05/12 01:59:24;;;;;;;19.33;4.10;;;;;;;19.29;nan;101206.72;4762659;30;20461;-83
2022/05/12 02:01:52;;;;;;;9.53;3.80;;;;;;;19.21;nan;101190.47;4749961;30;20468;-83
2022/05/12 02:04:32;;;;;;;17.23;3.40;;;;;;;19.18;nan;101185.41;4762948;30;20531;-83
2022/05/12 02:07:29;;;;;;;14.10;4.00;;;;;;;19.17;nan;101189.25;4761155;30;21075;-83
2022/05/12 02:10:27;;;;;;;17.80;3.57;;;;;;;19.30;nan;101197.31;4764233;30;21040;-83
2022/05/12 02:13:41;;;;;;;13.43;3.00;;;;;;;19.27;nan;101183.09;4701759;30;21050;-85
2022/05/12 02:16:07;;;;;;;12.23;3.30;;;;;;;19.14;nan;101167.56;4664030;30;20518;-84
2022/05/12 02:18:52;;;;;;;7.73;3.30;;;;;;;19.06;nan;101170.69;4680583;30;20492;-85
2022/05/12 02:24:32;;;;;;;13.17;3.40;;;;;;;19.12;nan;101189.13;4726991;30;21016;-84
2022/05/12 02:27:42;;;;;;;12.83;4.07;;;;;;;19.11;nan;101184.66;4771046;29;20484;-85
2022/05/12 02:30:33;;;;;;;19.53;4.33;;;;;;;19.13;nan;101178.88;4791824;29;20427;-85
2022/05/12 02:33:54;;;;;;;11.97;3.50;;;;;;;19.28;nan;101195.88;4816790;29;20958;-84
2022/05/12 02:37:03;;;;;;;10.50;3.30;;;;;;;19.28;nan;101202.25;4767717;30;20865;-85
2022/05/12 02:46:38;;;;;;;13.97;3.90;;;;;;;19.15;nan;101201.66;4693926;30;20437;-85
2022/05/12 02:49:09;;;;;;;10.70;4.17;;;;;;;19.21;nan;101207.09;4662807;30;20493;-85
2022/05/12 02:52:01;;;;;;;13.90;3.70;;;;;;;19.21;nan;101209.88;4692656;30;20465;-84
2022/05/12 02:54:34;;;;;;;10.63;3.60;;;;;;;19.14;nan;101194.44;4715527;30;20466;-85
2022/05/12 02:57:51;;;;;;;6.63;3.30;;;;;;;19.17;nan;101205.88;4700917;30;20469;-84
2022/05/12 03:00:46;;;;;;;10.80;2.97;;;;;;;19.13;nan;101203.81;4718382;30;20463;-85
2022/05/12 03:03:18;;;;;;;12.57;3.50;;;;;;;19.02;nan;101186.13;4726472;30;20461;-84
2022/05/12 03:05:45;;;;;;;12.23;3.50;;;;;;;19.03;nan;101198.03;4721211;30;20457;-84
2022/05/12 03:08:13;;;;;;;6.23;2.70;;;;;;;19.05;nan;101206.97;4736081;30;20469;-84
2022/05/12 03:10:40;;;;;;;10.87;3.47;;;;;;;18.98;nan;101196.81;4738587;30;20471;-84
2022/05/12 03:13:10;;;;;;;14.27;3.20;;;;;;;18.95;nan;101186.22;4751659;29;20452;-84
2022/05/12 03:15:38;;;;;;;15.53;3.40;;;;;;;18.98;nan;101193.22;4818925;29;20485;-85
2022/05/12 03:18:05;;;;;;;8.70;2.53;;;;;;;18.90;nan;101183.31;4810217;29;20453;-84
2022/05/12 03:20:37;;;;;;;9.47;2.90;;;;;;;18.87;nan;101188.47;4855448;29;20961;-84
2022/05/12 03:23:07;;;;;;;9.13;3.03;;;;;;;18.86;nan;101175.69;4889882;29;20959;-84
2022/05/12 03:25:52;;;;;;;7.30;3.07;;;;;;;18.87;nan;101161.63;4909498;29;20547;-85
2022/05/12 03:28:28;;;;;;;14.00;3.10;;;;;;;18.89;nan;101147.53;4937589;29;20483;-85
2022/05/12 03:30:56;;;;;;;9.30;2.50;;;;;;;18.78;nan;101115.13;4903885;29;20475;-85
2022/05/12 03:33:41;;;;;;;11.47;2.70;;;;;;;18.74;nan;101119.47;4917248;29;20460;-85
2022/05/12 03:36:15;;;;;;;12.37;2.23;;;;;;;18.77;nan;101130.06;4933121;29;20455;-85
2022/05/12 03:38:43;;;;;;;7.07;2.63;;;;;;;18.98;nan;101163.59;4918517;29;20500;-85
2022/05/12 03:41:12;;;;;;;9.40;3.10;;;;;;;19.02;nan;101152.88;4916538;29;20463;-85
2022/05/12 03:46:35;;;;;;;23.30;3.83;;;;;;;19.10;nan;101146.09;4956869;28;20461;-85
2022/05/12 03:49:03;;;;;;;11.23;3.77;;;;;;;19.18;nan;101162.38;4956445;29;20853;-85
2022/05/12 03:51:55;;;;;;;13.17;3.17;;;;;;;19.24;nan;101161.44;4945743;28;20498;-85
2022/05/12 03:54:23;;;;;;;15.50;3.37;;;;;;;19.21;nan;101146.13;4878953;29;20446;-84
2022/05/12 03:56:50;;;;;;;13.07;3.30;;;;;;;19.26;nan;101160.09;4878187;29;20950;-85
2022/05/12 04:26:40;;;;;;;14.40;3.70;;;;;;;19.11;nan;101162.50;4956560;29;20511;-85
2022/05/12 04:29:21;;;;;;;16.13;3.87;;;;;;;19.02;nan;101172.25;4888804;29;20476;-85
2022/05/12 04:32:13;;;;;;;;;;;;;;;;;;;;;
2022/05/12 04:35:11;;;;;;;16.10;3.33;;;;;;;18.85;nan;101172.13;4940267;29;20451;-85
2022/05/12 04:38:03;;;;;;;16.67;3.90;;;;;;;18.73;nan;101164.84;4847663;29;20447;-85
2022/05/12 04:40:41;;;;;;;16.30;4.00;;;;;;;18.69;nan;101181.09;4844824;29;20435;-85
2022/05/12 04:43:27;;;;;;;25.93;5.70;;;;;;;18.57;nan;101175.50;4846931;29;20423;-85
2022/05/12 04:46:17;;;;;;;14.10;3.90;;;;;;;18.55;nan;101174.03;4834027;29;21369;-85
2022/05/12 04:49:04;;;;;;;19.53;5.00;;;;;;;18.38;nan;101165.56;4755107;30;20483;-85
2022/05/12 04:51:57;;;;;;;12.93;3.40;;;;;;;18.32;nan;101160.97;4757179;30;20480;-85
2022/05/12 04:54:24;;;;;;;20.33;4.20;;;;;;;18.38;nan;101175.78;4768537;30;20452;-85
2022/05/12 04:57:18;;;;;;;17.90;4.20;;;;;;;18.29;nan;101165.03;4711716;30;20478;-85
2022/05/12 05:03:10;;;;;;;14.20;3.63;;;;;;;18.30;nan;101193.56;4699140;30;20466;-85
2022/05/12 05:05:55;;;;;;;13.90;3.67;;;;;;;18.17;nan;101193.75;4711643;30;20439;-85
2022/05/12 05:08:39;;;;;;;11.23;3.83;;;;;;;18.02;nan;101187.78;4741260;30;21029;-85
2022/05/12 05:22:38;;;;;;;12.80;3.80;;;;;;;17.58;nan;101209.09;4822788;29;20466;-85
2022/05/12 05:25:22;;;;;;;15.30;4.03;;;;;;;17.41;nan;101199.69;4822497;29;20457;-84
2022/05/12 05:28:58;;;;;;;12.10;4.07;;;;;;;17.42;nan;101212.44;4756456;30;20456;-85
2022/05/12 05:31:39;;;;;;;16.10;3.77;;;;;;;17.26;nan;101216.63;4783720;29;20451;-84
2022/05/12 05:35:09;;;;;;;10.70;3.20;;;;;;;17.31;nan;101224.25;4769863;30;20516;-84
2022/05/12 05:37:54;;;;;;;13.60;4.40;;;;;;;17.15;nan;101200.78;4774195;30;21112;-84
2022/05/12 05:40:39;;;;;;;15.57;4.30;;;;;;;17.02;nan;101198.97;4793362;29;20894;-85
2022/05/12 05:43:11;;;;;;;16.10;4.07;;;;;;;17.05;nan;101223.41;4772246;29;20459;-84
2022/05/12 05:45:39;;;;;;;23.83;4.30;;;;;;;17.00;nan;101225.13;4771970;30;20455;-85
2022/05/12 05:48:07;;;;;;;13.77;4.70;;;;;;;17.00;nan;101237.03;4771688;29;20455;-85
2022/05/12 05:53:25;;;;;;;17.37;4.20;;;;;;;16.97;nan;101251.28;4786046;29;20459;-85
2022/05/12 05:55:54;;;;;;;14.70;3.33;;;;;;;16.88;nan;101244.34;4785106;30;20459;-85
2022/05/12 05:58:22;;;;;;;11.83;3.20;;;;;;;16.76;nan;101246.09;4794206;29;20459;-84
2022/05/12 06:00:50;;;;;;;13.77;4.43;;;;;;;16.74;nan;101251.03;4846898;29;20506;-85
2022/05/12 06:03:18;;;;;;;8.27;2.77;;;;;;;16.75;nan;101264.59;4862226;29;20822;-84
2022/05/12 06:05:46;;;;;;;16.93;4.20;;;;;;;16.75;nan;101260.97;4846648;29;21035;-85
2022/05/12 06:08:15;;;;;;;15.07;3.90;;;;;;;16.76;nan;101262.66;4828937;29;20468;-84
2022/05/12 06:10:44;;;;;;;15.73;3.27;;;;;;;16.76;nan;101251.63;4915389;28;20563;-85
2022/05/12 06:13:13;;;;;;;9.40;2.90;;;;;;;16.86;nan;101252.00;4916160;29;20465;-85
2022/05/12 06:15:41;;;;;;;19.23;3.57;;;;;;;17.00;nan;101261.88;4937906;29;20439;-85
2022/05/12 06:18:12;;;;;;;12.80;3.47;;;;;;;17.12;nan;101257.34;4920222;29;20790;-85
2022/05/12 06:20:43;;;;;;;8.37;3.30;;;;;;;17.22;nan;101254.91;4925935;29;20511;-85
2022/05/12 06:23:12;;;;;;;13.37;4.07;;;;;;;17.35;nan;101266.91;4950096;29;20452;-84
2022/05/12 06:25:40;;;;;;;16.80;3.53;;;;;;;17.40;nan;101256.03;4926751;29;20455;-85
2022/05/12 06:28:08;;;;;;;14.10;3.40;;;;;;;17.52;nan;101282.69;4913878;29;20943;-84
2022/05/12 06:30:35;;;;;;;14.93;3.47;;;;;;;17.60;nan;101278.81;4935873;29;20907;-84
2022/05/12 06:33:04;;;;;;;15.60;4.27;;;;;;;17.72;nan;101288.06;4918716;29;20444;-85
2022/05/12 06:35:32;;;;;;;22.60;4.17;;;;;;;17.78;nan;101295.47;4919070;29;20448;-85
2022/05/12 06:38:00;;;;;;;28.67;6.47;;;;;;;17.73;nan;101286.16;4921618;29;20451;-85
2022/05/12 06:40:28;;;;;;;43.33;7.03;;;;;;;17.80;nan;101301.63;4937851;29;20452;-85
2022/05/12 06:42:56;;;;;;;49.63;7.00;;;;;;;17.77;nan;101293.78;4936554;29;20444;-84
2022/05/12 06:45:24;;;;;;;34.43;5.07;;;;;;;17.83;nan;101294.78;4940888;29;20459;-85
2022/05/12 06:47:53;;;;;;;33.37;5.17;;;;;;;17.86;nan;101292.41;4918842;29;20463;-84
2022/05/12 06:50:23;;;;;;;17.33;4.93;;;;;;;17.98;nan;101297.19;4918718;29;20542;-84
2022/05/12 06:53:41;;;;;;;26.87;3.80;;;;;;;18.08;nan;101297.50;4882134;29;20462;-85
2022/05/12 06:56:22;;;;;;;16.13;3.60;;;;;;;18.19;nan;101282.91;4892948;29;20836;-84
2022/05/12 06:58:51;;;;;;;14.70;3.50;;;;;;;18.24;nan;101267.31;4875870;29;20481;-84
2022/05/12 07:01:54;;;;;;;8.00;3.10;;;;;;;18.37;nan;101249.66;4877583;29;20449;-85
2022/05/12 07:04:35;;;;;;;16.63;3.20;;;;;;;18.58;nan;101251.09;4901233;29;20453;-85
2022/05/12 07:07:05;;;;;;;14.60;3.73;;;;;;;18.75;nan;101257.69;4840147;29;20468;-85
2022/05/12 07:09:59;;;;;;;10.97;3.53;;;;;;;19.00;nan;101276.94;4876357;29;21063;-85
2022/05/12 07:12:44;;;;;;;7.77;2.93;;;;;;;19.13;nan;101273.09;4890378;29;20940;-85
2022/05/12 07:15:31;;;;;;;18.70;3.40;;;;;;;19.25;nan;101262.88;4907526;29;20444;-85
2022/05/12 07:17:59;;;;;;;10.93;3.50;;;;;;;19.40;nan;101281.84;4898116;29;20480;-85
2022/05/12 07:26:40;;;;;;;17.97;4.10;;;;;;;19.85;nan;101302.38;4903286;29;20559;-85
2022/05/12 07:29:34;;;;;;;17.47;4.90;;;;;;;19.94;nan;101287.06;4897918;29;20476;-85
2022/05/12 07:32:02;;;;;;;21.53;4.33;;;;;;;19.97;nan;101289.38;4946709;28;20935;-88
2022/05/12 07:42:21;;;;;;;14.37;3.80;;;;;;;20.20;nan;101291.25;4934704;29;20451;-85
2022/05/12 07:45:12;;;;;;;23.83;4.97;;;;;;;20.15;nan;101285.59;4949478;28;20442;-86
2022/05/12 07:47:40;;;;;;;15.30;4.00;;;;;;;20.31;nan;101301.50;4956363;28;20438;-86
2022/05/12 07:50:09;;;;;;;21.73;4.47;;;;;;;20.32;nan;101288.44;4939553;29;20474;-85
2022/05/12 07:52:38;;;;;;;15.63;4.17;;;;;;;20.46;nan;101298.22;4956744;28;20477;-85
2022/05/12 07:55:06;;;;;;;29.17;5.67;;;;;;;20.59;nan;101297.13;4955137;29;20828;-85
2022/05/12 07:57:34;;;;;;;31.27;5.83;;;;;;;20.68;nan;101296.47;4954894;29;20824;-86
2022/05/12 08:00:05;;;;;;;34.80;4.87;;;;;;;20.77;nan;101293.31;4908462;29;20444;-83
2022/05/12 08:02:33;;;;;;;22.80;5.70;;;;;;;20.89;nan;101296.88;4971252;28;20808;-83
2022/05/12 08:05:01;;;;;;;26.50;5.40;;;;;;;20.97;nan;101299.25;4943413;29;20450;-83
2022/05/12 08:07:29;;;;;;;21.73;5.67;;;;;;;21.02;nan;101293.75;4951865;29;20447;-83
2022/05/12 08:09:58;;;;;;;22.23;4.67;;;;;;;21.13;nan;101292.88;4936578;29;20558;-84
2022/05/12 08:12:27;;;;;;;23.83;4.90;;;;;;;21.21;nan;101294.41;4936656;29;20945;-85
2022/05/12 08:14:55;;;;;;;33.77;5.50;;;;;;;21.32;nan;101297.16;4953909;29;20455;-85
2022/05/12 08:17:23;;;;;;;24.47;4.47;;;;;;;21.40;nan;101292.25;4938189;29;20455;-85
2022/05/12 08:19:51;;;;;;;20.97;5.30;;;;;;;21.40;nan;101293.09;4921815;29;20462;-87
2022/05/12 08:22:19;;;;;;;16.70;4.57;;;;;;;21.46;nan;101288.47;4952786;29;20462;-85
2022/05/12 08:24:46;;;;;;;22.30;4.73;;;;;;;21.55;nan;101293.34;4953433;29;20447;-86
2022/05/12 08:27:14;;;;;;;28.73;4.37;;;;;;;21.62;nan;101305.16;4954893;29;20448;-87
2022/05/12 08:29:43;;;;;;;17.87;4.13;;;;;;;21.68;nan;101320.84;4939284;29;20476;-86
2022/05/12 08:32:12;;;;;;;28.63;5.37;;;;;;;21.73;nan;101325.66;4952781;29;20444;-90
2022/05/12 08:34:40;;;;;;;20.17;4.60;;;;;;;21.75;nan;101323.44;4936325;29;20450;-86
2022/05/12 08:37:09;;;;;;;22.40;4.90;;;;;;;21.81;nan;101322.41;4935085;29;20954;-87
2022/05/12 08:39:37;;;;;;;24.23;5.37;;;;;;;21.85;nan;101320.81;4932543;29;20439;-86
2022/05/12 08:42:16;;;;;;;24.60;4.83;;;;;;;21.81;nan;101322.41;4925150;29;20463;-86
2022/05/12 08:44:43;;;;;;;30.23;5.70;;;;;;;21.81;nan;101333.56;4935998;29;20494;-85
2022/05/12 08:47:14;;;;;;;32.60;6.30;;;;;;;21.70;nan;101337.28;4953001;29;20455;-85
2022/05/12 08:49:52;;;;;;;31.23;6.77;;;;;;;21.65;nan;101324.13;4933208;29;20476;-85
2022/05/12 08:52:50;;;;;;;22.73;5.60;;;;;;;21.71;nan;101336.19;4939840;29;20458;-84
2022/05/12 08:55:59;;;;;;;19.80;5.30;;;;;;;21.84;nan;101338.63;4931044;29;20435;-85
2022/05/12 08:58:47;;;;;;;19.57;5.50;;;;;;;21.92;nan;101346.56;4893877;29;20979;-86
2022/05/12 09:05:30;;;;;;;54.17;6.63;;;;;;;22.08;nan;101328.16;4899475;29;21010;-83
2022/05/12 09:08:43;;;;;;;27.20;5.77;;;;;;;22.30;nan;101336.56;4931211;29;20506;-82
2022/05/12 09:11:34;;;;;;;22.63;6.60;;;;;;;22.44;nan;101343.44;4909201;29;20486;-83
2022/05/12 09:14:04;;;;;;;44.83;8.27;;;;;;;22.55;nan;101339.66;4916198;29;20464;-82
2022/05/12 09:16:32;;;;;;;35.50;6.60;;;;;;;22.68;nan;101344.88;4912711;29;20891;-83
2022/05/12 09:21:56;;;;;;;32.10;6.50;;;;;;;22.74;nan;101315.94;4914471;29;20812;-82
2022/05/12 09:24:24;;;;;;;27.37;6.17;;;;;;;22.81;nan;101321.34;4919841;29;20467;-83
2022/05/12 09:27:11;;;;;;;38.07;6.00;;;;;;;22.96;nan;101346.63;4921001;29;20456;-82
2022/05/12 09:29:51;;;;;;;23.67;5.17;;;;;;;23.00;nan;101330.22;4934183;29;21013;-83
2022/05/12 09:32:31;;;;;;;28.13;6.77;;;;;;;23.05;nan;101338.66;4899817;29;20518;-83
2022/05/12 09:35:13;;;;;;;28.47;6.73;;;;;;;23.13;nan;101346.53;4896862;29;20453;-83
2022/05/12 09:37:44;;;;;;;32.30;7.23;;;;;;;23.25;nan;101350.03;4886264;29;21038;-83
2022/05/12 09:40:39;;;;;;;36.33;6.87;;;;;;;23.51;nan;101348.28;4914435;29;20460;-84
2022/05/12 09:43:33;;;;;;;24.43;6.47;;;;;;;23.74;nan;101342.41;4930184;29;20484;-83
2022/05/12 09:46:29;;;;;;;29.33;6.90;;;;;;;23.99;nan;101355.72;4923155;29;20463;-83
2022/05/12 09:49:20;;;;;;;24.77;5.63;;;;;;;24.03;nan;101359.66;4929689;29;20467;-83
2022/05/12 09:51:52;;;;;;;29.67;6.83;;;;;;;23.90;nan;101345.28;4921707;29;20480;-83
2022/05/12 09:54:29;;;;;;;31.23;7.10;;;;;;;24.04;nan;101336.22;4916919;29;20458;-84
2022/05/12 09:57:12;;;;;;;27.10;7.30;;;;;;;24.10;nan;101351.88;4929683;29;20838;-84
2022/05/12 09:59:42;;;;;;;22.50;6.40;;;;;;;24.01;nan;101350.72;4933876;29;20448;-86
2022/05/12 10:12:08;;;;;;;31.67;6.67;;;;;;;24.27;nan;101350.88;4964362;28;20483;-87
2022/05/12 10:14:54;;;;;;;24.10;6.77;;;;;;;24.31;nan;101354.81;4941274;28;20461;-85
2022/05/12 10:17:28;;;;;;;24.10;6.07;;;;;;;24.42;nan;101337.88;4937798;29;20455;-85
2022/05/12 10:19:58;;;;;;;31.00;6.10;;;;;;;24.43;nan;101344.28;4954783;29;20466;-86
2022/05/12 10:22:37;;;;;;;33.07;7.20;;;;;;;24.69;nan;101351.66;4922259;29;20458;-86
2022/05/12 10:25:26;;;;;;;27.40;6.63;;;;;;;24.89;nan;101364.91;4907404;29;20457;-86
2022/05/12 10:28:04;;;;;;;21.77;5.67;;;;;;;25.03;nan;101362.44;4945861;28;20460;-86
2022/05/12 10:30:59;;;;;;;27.73;6.17;;;;;;;25.21;nan;101372.31;4942620;28;20481;-85
2022/05/12 10:34:08;;;;;;;33.43;5.60;;;;;;;25.21;nan;101361.94;4920468;28;20445;-85
2022/05/12 10:37:08;;;;;;;26.43;6.07;;;;;;;25.36;nan;101369.53;4861939;29;20997;-86
2022/05/12 10:40:16;;;;;;;25.33;6.20;;;;;;;25.51;nan;101354.72;4873887;29;20950;-86
2022/05/12 10:43:13;;;;;;;18.70;5.93;;;;;;;25.72;nan;101362.88;4851467;29;20501;-85
2022/05/12 10:45:58;;;;;;;19.13;5.27;;;;;;;25.76;nan;101363.19;4871067;29;20611;-85
2022/05/12 10:48:26;;;;;;;31.60;6.40;;;;;;;25.98;nan;101377.72;4857089;29;20452;-85
2022/05/12 10:55:18;;;;;;;26.93;5.83;;;;;;;26.45;nan;101371.78;4872310;29;20474;-86
2022/05/12 10:58:30;;;;;;;22.47;5.03;;;;;;;26.57;nan;101382.66;4860854;29;20551;-86
2022/05/12 11:01:26;;;;;;;29.53;6.00;;;;;;;26.84;nan;101399.97;4857941;29;20447;-86
2022/05/12 11:04:03;;;;;;;41.37;6.03;;;;;;;26.98;nan;101390.97;4864967;29;20489;-85
2022/05/12 11:06:46;;;;;;;39.07;7.67;;;;;;;27.06;nan;101382.81;4871711;29;20534;-86
2022/05/12 11:09:51;;;;;;;24.20;6.87;;;;;;;27.11;nan;101381.94;4848557;29;20965;-86
2022/05/12 11:12:59;;;;;;;;;;;;;;;;;;;;;
2022/05/12 11:45:48;;;;;;;28.03;5.00;;;;;;;27.55;nan;101417.59;4898486;29;20874;-86
2022/05/12 11:49:01;;;;;;;24.37;4.90;;;;;;;27.70;nan;101425.97;4888668;29;20460;-87
2022/05/12 11:52:23;;;;;;;33.90;6.63;;;;;;;27.89;nan;101435.38;4907033;29;21036;-86
2022/05/12 11:55:19;;;;;;;22.17;5.20;;;;;;;28.01;nan;101398.47;4878193;29;20466;-86
2022/05/12 11:58:00;;;;;;;23.63;5.33;;;;;;;28.11;nan;101393.56;4861165;29;20450;-86
2022/05/12 12:00:43;;;;;;;26.73;5.20;;;;;;;28.15;nan;101377.78;4878638;29;20458;-87
2022/05/12 12:03:20;;;;;;;20.30;5.17;;;;;;;28.18;nan;101379.19;4878152;29;20457;-86
2022/05/12 12:05:51;;;;;;;28.13;4.90;;;;;;;28.33;nan;101364.16;4879602;29;20454;-86
2022/05/12 12:08:30;;;;;;;22.43;5.50;;;;;;;28.49;nan;101354.41;4879253;29;20473;-86
2022/05/12 12:11:13;;;;;;;25.17;6.33;;;;;;;28.69;nan;101353.31;4878119;29;20544;-84
2022/05/12 12:13:49;;;;;;;21.37;4.93;;;;;;;28.86;nan;101348.91;4877409;29;20465;-84
2022/05/12 12:16:45;;;;;;;19.40;6.00;;;;;;;29.04;nan;101355.72;4844067;29;20984;-83
2022/05/12 12:19:34;;;;;;;21.10;5.23;;;;;;;29.16;nan;101355.25;4875946;29;20616;-84
2022/05/12 22:02:59;;;;;;;29.93;6.83;;;;;;;19.24;nan;101610.44;4916551;29;21085;-83
2022/05/12 22:05:27;;;;;;;23.67;6.37;;;;;;;19.18;nan;101591.97;4929214;29;20651;-83
2022/05/12 22:07:55;;;;;;;19.77;5.47;;;;;;;19.19;nan;101590.88;4885274;29;20948;-84
2022/05/12 22:10:22;;;;;;;23.03;6.20;;;;;;;19.18;nan;101589.19;4914876;29;20447;-84
2022/05/12 22:12:55;;;;;;;19.73;5.47;;;;;;;19.15;nan;101596.03;4873004;29;20874;-84
2022/05/12 22:15:22;;;;;;;24.20;5.97;;;;;;;19.14;nan;101593.47;4917321;29;20806;-84
2022/05/12 22:17:50;;;;;;;23.90;5.73;;;;;;;19.08;nan;101589.69;4900348;29;20447;-84
2022/05/12 22:20:31;;;;;;;28.33;6.30;;;;;;;18.95;nan;101606.47;4891809;29;20463;-84
2022/05/12 22:23:04;;;;;;;33.97;6.93;;;;;;;18.88;nan;101602.91;4903495;29;20487;-84
2022/05/12 22:25:32;;;;;;;20.63;5.90;;;;;;;18.79;nan;101602.38;4903597;29;20437;-83
2022/05/12 22:28:05;;;;;;;22.80;5.07;;;;;;;18.76;nan;101601.97;4884950;29;20445;-84
2022/05/12 22:30:37;;;;;;;21.13;6.53;;;;;;;18.68;nan;101614.16;4885272;29;20452;-84
2022/05/12 22:33:05;;;;;;;17.37;4.97;;;;;;;;;;4883263;29;20449;-84
2022/05/12 22:35:32;;;;;;;20.37;6.47;;;;;;;;;;4897806;29;20952;-84
2022/05/12 22:37:59;;;;;;;20.80;6.00;;;;;;;;;;4896915;29;20446;-85
2022/05/12 22:40:33;;;;;;;27.47;6.27;;;;;;;;;;4908848;29;20439;-85
2022/05/12 22:43:01;;;;;;;27.90;5.70;;;;;;;;;;4902165;29;20848;-85
2022/05/12 22:45:28;;;;;;;22.23;6.27;;;;;;;;;;4918628;29;20500;-85
2022/05/12 22:47:56;;;;;;;18.50;6.60;;;;;;;;;;4918033;29;20456;-85
2022/05/12 22:50:25;;;;;;;23.60;6.00;;;;;;;;;;4910409;29;20437;-85
2022/05/12 22:53:12;;;;;;;29.97;5.63;;;;;;;;;;4928429;29;20472;-84
2022/05/12 22:55:39;;;;;;;21.23;7.10;;;;;;;;;;4897497;29;20445;-85
2022/05/12 22:58:06;;;;;;;18.27;5.60;;;;;;;;;;4896912;29;20505;-85
2022/05/12 23:00:34;;;;;;;19.87;5.30;;;;;;;;;;4881595;29;20460;-85
2022/05/12 23:03:01;;;;;;;15.47;5.27;;;;;;;;;;4900706;29;20982;-85
2022/05/12 23:05:29;;;;;;;20.50;5.47;;;;;;;;;;4918805;29;20547;-85
2022/05/12 23:07:56;;;;;;;29.30;5.90;;;;;;;;;;4903462;29;20487;-85
